Aladdin, WY

6:41 PM MST on March 06, 2015 (GMT -0700)
NonFedAWOS BELLE FOURCHE SD US SUPERAWOS | Change Station
CLOSE
Current Station
Personal Weather Station
Location: Belle Fourche, SD
Elevation: 3189 ft
Nearby Weather Stations

Elev 3189 ft 44.73 °N, 103.86 °W | Updated 46 minutes ago

Clear
Clear
45 °F
Feels Like 42 °F
N
5
Wind Variable Wind from West
Gusts 0.0 mph

Today
High -- | Low -- °F
--% Chance of Precip.
Yesterday
High -- | Low -- °F
Precip. -- in
6:25 AM 5:50 PM
Full, 98% visible
Pressure 30.13 in
Visibility 10.0 miles
Clouds Mostly Cloudy 8500 ft
Windchill 42 °F
Dew Point 21 °F
Humidity 39%
Rainfall in
Snow Depth Not available.
UV 0 out of 12
Pollen 2.70 out of 12
Air Quality Not available.
Flu Activity Not available.
METAR KW43 070135Z AUTO 22007KT 10SM BKN085 05/M05 A3013 RMK AO2

More Conditions Fewer Conditions

Pressure 30.13 in
Visibility 10.0 miles
Clouds Mostly Cloudy 8500 ft
Windchill 42 °F
Dew Point 21 °F
Humidity 39%
Rainfall in
Snow Depth Not available.
UV 0 out of 12
Pollen 2.70 out of 12
Air Quality Not available.
Flu Activity Not available.
METAR KW43 070135Z AUTO 22007KT 10SM BKN085 05/M05 A3013 RMK AO2

More Conditions Fewer Conditions

10-Day Weather Forecast

Almanac

Astronomy

Mar. 06, 2015 Rise Set
Actual Time
Civil Twilight
Nautical Twilight
Astronomical Twilight
Moon
Length of Visible Light
Length of Day
Tomorrow will be .
, % of the Moon is Illuminated

Today's Extremes

State Highs State Lows

Community

WunderPhotos

Upload Photos

1,803,494 photos uploaded!

WunderBlogs® & News

Nearby

Air Quality

  Air Quality AQ Index Pollutant
Not available.

Snow Depth

Station Depth Elevation

Earthquake Activity

City Distance Mag. Time & Date
Minimum magnitude displayed is 2.5.

Coastal Water Temperatures

Place Temperature

Nearby Weather Stations